sensor_id;sensor_type;location;lat;lon;timestamp;temperature;humidity
37874;DHT22;23709;48.078;11.684;2023-04-19T00:00:44;8.80;99.90
37874;DHT22;23709;48.078;11.684;2023-04-19T00:03:17;8.80;99.90
37874;DHT22;23709;48.078;11.684;2023-04-19T00:05:49;8.80;99.90
37874;DHT22;23709;48.078;11.684;2023-04-19T00:08:25;8.80;99.90
37874;DHT22;23709;48.078;11.684;2023-04-19T00:10:57;8.80;99.90
37874;DHT22;23709;48.078;11.684;2023-04-19T00:13:29;8.80;99.90
37874;DHT22;23709;48.078;11.684;2023-04-19T00:16:01;8.80;99.90
37874;DHT22;23709;48.078;11.684;2023-04-19T00:18:33;8.80;99.90
37874;DHT22;23709;48.078;11.684;2023-04-19T00:21:06;8.90;99.90
37874;DHT22;23709;48.078;11.684;2023-04-19T00:23:38;8.80;99.90
37874;DHT22;23709;48.078;11.684;2023-04-19T00:26:10;8.80;99.90
37874;DHT22;23709;48.078;11.684;2023-04-19T00:28:51;8.70;99.90
37874;DHT22;23709;48.078;11.684;2023-04-19T00:31:23;8.80;99.90
37874;DHT22;23709;48.078;11.684;2023-04-19T00:33:56;8.70;99.90
37874;DHT22;23709;48.078;11.684;2023-04-19T00:36:30;8.70;99.90
37874;DHT22;23709;48.078;11.684;2023-04-19T00:39:02;8.70;99.90
37874;DHT22;23709;48.078;11.684;2023-04-19T00:41:35;8.70;99.90
37874;DHT22;23709;48.078;11.684;2023-04-19T00:44:08;8.60;99.90
37874;DHT22;23709;48.078;11.684;2023-04-19T00:46:40;8.60;99.90
37874;DHT22;23709;48.078;11.684;2023-04-19T00:49:13;8.60;99.90
37874;DHT22;23709;48.078;11.684;2023-04-19T00:51:46;8.60;99.90
37874;DHT22;23709;48.078;11.684;2023-04-19T00:54:19;8.60;99.90
37874;DHT22;23709;48.078;11.684;2023-04-19T00:56:53;8.60;99.90
37874;DHT22;23709;48.078;11.684;2023-04-19T00:59:29;8.50;99.90
37874;DHT22;23709;48.078;11.684;2023-04-19T01:02:02;8.60;99.90
37874;DHT22;23709;48.078;11.684;2023-04-19T01:04:34;8.60;99.90
37874;DHT22;23709;48.078;11.684;2023-04-19T01:07:07;8.50;99.90
37874;DHT22;23709;48.078;11.684;2023-04-19T01:09:42;8.50;99.90
37874;DHT22;23709;48.078;11.684;2023-04-19T01:12:14;8.50;99.90
37874;DHT22;23709;48.078;11.684;2023-04-19T01:14:47;8.50;99.90
37874;DHT22;23709;48.078;11.684;2023-04-19T01:17:21;8.50;99.90
37874;DHT22;23709;48.078;11.684;2023-04-19T01:20:01;8.50;99.90
37874;DHT22;23709;48.078;11.684;2023-04-19T01:22:34;8.50;99.90
37874;DHT22;23709;48.078;11.684;2023-04-19T01:25:09;8.50;99.90
37874;DHT22;23709;48.078;11.684;2023-04-19T01:27:42;8.50;99.90
37874;DHT22;23709;48.078;11.684;2023-04-19T01:30:15;8.40;99.90
37874;DHT22;23709;48.078;11.684;2023-04-19T01:32:48;8.50;99.90
37874;DHT22;23709;48.078;11.684;2023-04-19T01:35:20;8.40;99.90
37874;DHT22;23709;48.078;11.684;2023-04-19T01:37:52;8.40;99.90
37874;DHT22;23709;48.078;11.684;2023-04-19T01:40:27;8.40;99.90
37874;DHT22;23709;48.078;11.684;2023-04-19T01:42:59;8.50;99.90
37874;DHT22;23709;48.078;11.684;2023-04-19T01:45:31;8.40;99.90
37874;DHT22;23709;48.078;11.684;2023-04-19T01:48:05;8.50;99.90
37874;DHT22;23709;48.078;11.684;2023-04-19T01:50:38;8.50;99.90
37874;DHT22;23709;48.078;11.684;2023-04-19T01:53:10;8.50;99.90
37874;DHT22;23709;48.078;11.684;2023-04-19T01:55:42;8.50;99.90
37874;DHT22;23709;48.078;11.684;2023-04-19T01:58:15;8.40;99.90
37874;DHT22;23709;48.078;11.684;2023-04-19T02:00:48;8.50;99.90
37874;DHT22;23709;48.078;11.684;2023-04-19T02:03:21;8.30;99.90
37874;DHT22;23709;48.078;11.684;2023-04-19T02:05:54;8.30;99.90
37874;DHT22;23709;48.078;11.684;2023-04-19T02:08:26;8.30;99.90
37874;DHT22;23709;48.078;11.684;2023-04-19T02:10:58;8.40;99.90
37874;DHT22;23709;48.078;11.684;2023-04-19T02:13:31;8.40;99.90
37874;DHT22;23709;48.078;11.684;2023-04-19T02:16:04;8.30;99.90
37874;DHT22;23709;48.078;11.684;2023-04-19T02:18:37;8.30;99.90
37874;DHT22;23709;48.078;11.684;2023-04-19T02:21:12;8.40;99.90
37874;DHT22;23709;48.078;11.684;2023-04-19T02:23:45;8.30;99.90
37874;DHT22;23709;48.078;11.684;2023-04-19T02:26:17;8.30;99.90
37874;DHT22;23709;48.078;11.684;2023-04-19T02:28:51;8.30;99.90
37874;DHT22;23709;48.078;11.684;2023-04-19T02:31:24;8.30;99.90
37874;DHT22;23709;48.078;11.684;2023-04-19T02:33:56;8.30;99.90
37874;DHT22;23709;48.078;11.684;2023-04-19T02:36:28;8.40;99.90
37874;DHT22;23709;48.078;11.684;2023-04-19T02:39:01;8.40;99.90
37874;DHT22;23709;48.078;11.684;2023-04-19T02:41:34;8.40;99.90
37874;DHT22;23709;48.078;11.684;2023-04-19T02:44:06;8.40;99.90
37874;DHT22;23709;48.078;11.684;2023-04-19T02:46:39;8.40;99.90
37874;DHT22;23709;48.078;11.684;2023-04-19T02:49:11;8.40;99.90
37874;DHT22;23709;48.078;11.684;2023-04-19T02:51:44;8.30;99.90
37874;DHT22;23709;48.078;11.684;2023-04-19T02:54:17;8.40;99.90
37874;DHT22;23709;48.078;11.684;2023-04-19T02:56:51;8.40;99.90
37874;DHT22;23709;48.078;11.684;2023-04-19T02:59:23;8.40;99.90
37874;DHT22;23709;48.078;11.684;2023-04-19T03:01:55;8.40;99.90
37874;DHT22;23709;48.078;11.684;2023-04-19T03:04:29;8.30;99.90
37874;DHT22;23709;48.078;11.684;2023-04-19T03:07:02;8.30;99.90
37874;DHT22;23709;48.078;11.684;2023-04-19T03:09:35;8.30;99.90
37874;DHT22;23709;48.078;11.684;2023-04-19T03:12:08;8.30;99.90
37874;DHT22;23709;48.078;11.684;2023-04-19T03:14:40;8.30;99.90
37874;DHT22;23709;48.078;11.684;2023-04-19T03:17:13;8.30;99.90
37874;DHT22;23709;48.078;11.684;2023-04-19T03:19:45;8.30;99.90
37874;DHT22;23709;48.078;11.684;2023-04-19T03:22:19;8.30;99.90
37874;DHT22;23709;48.078;11.684;2023-04-19T03:24:51;8.30;99.90
37874;DHT22;23709;48.078;11.684;2023-04-19T03:27:26;8.30;99.90
37874;DHT22;23709;48.078;11.684;2023-04-19T03:30:03;8.30;99.90
37874;DHT22;23709;48.078;11.684;2023-04-19T03:32:37;8.30;99.90
37874;DHT22;23709;48.078;11.684;2023-04-19T03:35:11;8.30;99.90
37874;DHT22;23709;48.078;11.684;2023-04-19T03:37:43;8.30;99.90
37874;DHT22;23709;48.078;11.684;2023-04-19T03:40:15;8.30;99.90
37874;DHT22;23709;48.078;11.684;2023-04-19T03:42:47;8.30;99.90
37874;DHT22;23709;48.078;11.684;2023-04-19T03:45:32;8.30;99.90
37874;DHT22;23709;48.078;11.684;2023-04-19T03:48:05;8.30;99.90
37874;DHT22;23709;48.078;11.684;2023-04-19T03:50:38;8.30;99.90
37874;DHT22;23709;48.078;11.684;2023-04-19T03:53:11;8.30;99.90
37874;DHT22;23709;48.078;11.684;2023-04-19T03:55:44;8.20;99.90
37874;DHT22;23709;48.078;11.684;2023-04-19T03:58:16;8.20;99.90
37874;DHT22;23709;48.078;11.684;2023-04-19T04:01:02;8.30;99.90
37874;DHT22;23709;48.078;11.684;2023-04-19T04:03:34;8.30;99.90
37874;DHT22;23709;48.078;11.684;2023-04-19T04:06:08;8.30;99.90
37874;DHT22;23709;48.078;11.684;2023-04-19T04:08:40;8.30;99.90
37874;DHT22;23709;48.078;11.684;2023-04-19T04:11:13;8.30;99.90
37874;DHT22;23709;48.078;11.684;2023-04-19T04:13:46;8.30;99.90
37874;DHT22;23709;48.078;11.684;2023-04-19T04:16:24;8.30;99.90
37874;DHT22;23709;48.078;11.684;2023-04-19T04:18:57;8.30;99.90
37874;DHT22;23709;48.078;11.684;2023-04-19T04:21:32;8.30;99.90
37874;DHT22;23709;48.078;11.684;2023-04-19T04:24:06;8.30;99.90
37874;DHT22;23709;48.078;11.684;2023-04-19T04:27:03;8.30;99.90
37874;DHT22;23709;48.078;11.684;2023-04-19T04:29:39;8.30;99.90
37874;DHT22;23709;48.078;11.684;2023-04-19T04:32:13;8.30;99.90
37874;DHT22;23709;48.078;11.684;2023-04-19T04:34:50;8.30;99.90
37874;DHT22;23709;48.078;11.684;2023-04-19T04:37:31;8.30;99.90
37874;DHT22;23709;48.078;11.684;2023-04-19T04:40:08;8.20;99.90
37874;DHT22;23709;48.078;11.684;2023-04-19T04:42:41;8.30;99.90
37874;DHT22;23709;48.078;11.684;2023-04-19T04:45:14;8.30;99.90
37874;DHT22;23709;48.078;11.684;2023-04-19T04:47:50;8.30;99.90
37874;DHT22;23709;48.078;11.684;2023-04-19T04:50:22;8.30;99.90
37874;DHT22;23709;48.078;11.684;2023-04-19T04:52:54;8.20;99.90
37874;DHT22;23709;48.078;11.684;2023-04-19T04:55:34;8.20;99.90
37874;DHT22;23709;48.078;11.684;2023-04-19T04:58:06;8.20;99.90
37874;DHT22;23709;48.078;11.684;2023-04-19T05:01:08;8.30;99.90
37874;DHT22;23709;48.078;11.684;2023-04-19T05:03:43;8.20;99.90
37874;DHT22;23709;48.078;11.684;2023-04-19T05:06:21;8.20;99.90
37874;DHT22;23709;48.078;11.684;2023-04-19T05:08:53;8.20;99.90
37874;DHT22;23709;48.078;11.684;2023-04-19T05:11:34;8.20;99.90
37874;DHT22;23709;48.078;11.684;2023-04-19T05:14:07;8.20;99.90
37874;DHT22;23709;48.078;11.684;2023-04-19T05:16:39;8.20;99.90
37874;DHT22;23709;48.078;11.684;2023-04-19T05:19:11;8.20;99.90
37874;DHT22;23709;48.078;11.684;2023-04-19T05:21:50;8.20;99.90
37874;DHT22;23709;48.078;11.684;2023-04-19T05:24:22;8.20;99.90
37874;DHT22;23709;48.078;11.684;2023-04-19T05:26:55;8.20;99.90
37874;DHT22;23709;48.078;11.684;2023-04-19T05:29:29;8.20;99.90
37874;DHT22;23709;48.078;11.684;2023-04-19T05:32:01;8.20;99.90
37874;DHT22;23709;48.078;11.684;2023-04-19T05:34:37;8.20;99.90
37874;DHT22;23709;48.078;11.684;2023-04-19T05:37:09;8.30;99.90
37874;DHT22;23709;48.078;11.684;2023-04-19T05:39:42;8.30;99.90
37874;DHT22;23709;48.078;11.684;2023-04-19T05:42:15;8.30;99.90
37874;DHT22;23709;48.078;11.684;2023-04-19T05:44:47;8.30;99.90
37874;DHT22;23709;48.078;11.684;2023-04-19T05:47:20;8.30;99.90
37874;DHT22;23709;48.078;11.684;2023-04-19T05:50:16;8.30;99.90
37874;DHT22;23709;48.078;11.684;2023-04-19T05:53:09;8.30;99.90
37874;DHT22;23709;48.078;11.684;2023-04-19T05:55:42;8.30;99.90
37874;DHT22;23709;48.078;11.684;2023-04-19T05:58:17;8.30;99.90
37874;DHT22;23709;48.078;11.684;2023-04-19T06:00:50;8.30;99.90
37874;DHT22;23709;48.078;11.684;2023-04-19T06:03:24;8.30;99.90
37874;DHT22;23709;48.078;11.684;2023-04-19T06:06:03;8.40;99.90
37874;DHT22;23709;48.078;11.684;2023-04-19T06:08:36;8.30;99.90
37874;DHT22;23709;48.078;11.684;2023-04-19T06:11:08;8.40;99.90
37874;DHT22;23709;48.078;11.684;2023-04-19T06:13:55;8.40;99.90
37874;DHT22;23709;48.078;11.684;2023-04-19T06:16:27;8.40;99.90
37874;DHT22;23709;48.078;11.684;2023-04-19T06:19:00;8.40;99.90
37874;DHT22;23709;48.078;11.684;2023-04-19T06:21:33;8.40;99.90
37874;DHT22;23709;48.078;11.684;2023-04-19T06:24:06;8.40;99.90
37874;DHT22;23709;48.078;11.684;2023-04-19T06:26:39;8.40;99.90
37874;DHT22;23709;48.078;11.684;2023-04-19T06:29:11;8.40;99.90
37874;DHT22;23709;48.078;11.684;2023-04-19T06:31:43;8.40;99.90
37874;DHT22;23709;48.078;11.684;2023-04-19T06:34:17;8.30;99.90
37874;DHT22;23709;48.078;11.684;2023-04-19T06:36:50;8.30;99.90
37874;DHT22;23709;48.078;11.684;2023-04-19T06:39:22;8.30;99.90
37874;DHT22;23709;48.078;11.684;2023-04-19T06:41:55;8.30;99.90
37874;DHT22;23709;48.078;11.684;2023-04-19T06:44:28;8.40;99.90
37874;DHT22;23709;48.078;11.684;2023-04-19T06:47:00;8.30;99.90
37874;DHT22;23709;48.078;11.684;2023-04-19T06:49:33;8.30;99.90
37874;DHT22;23709;48.078;11.684;2023-04-19T06:52:05;8.30;99.90
37874;DHT22;23709;48.078;11.684;2023-04-19T06:54:37;8.30;99.90
37874;DHT22;23709;48.078;11.684;2023-04-19T06:57:10;8.30;99.90
37874;DHT22;23709;48.078;11.684;2023-04-19T06:59:42;8.40;99.90
37874;DHT22;23709;48.078;11.684;2023-04-19T07:02:15;8.40;99.90
37874;DHT22;23709;48.078;11.684;2023-04-19T07:04:48;8.40;99.90
37874;DHT22;23709;48.078;11.684;2023-04-19T07:07:20;8.40;99.90
37874;DHT22;23709;48.078;11.684;2023-04-19T07:09:52;8.40;99.90
37874;DHT22;23709;48.078;11.684;2023-04-19T07:12:25;8.40;99.90
37874;DHT22;23709;48.078;11.684;2023-04-19T07:14:57;8.40;99.90
37874;DHT22;23709;48.078;11.684;2023-04-19T07:17:29;8.40;99.90
37874;DHT22;23709;48.078;11.684;2023-04-19T07:20:02;8.40;99.90
37874;DHT22;23709;48.078;11.684;2023-04-19T07:22:36;8.40;99.90
37874;DHT22;23709;48.078;11.684;2023-04-19T07:25:08;8.40;99.90
37874;DHT22;23709;48.078;11.684;2023-04-19T07:27:40;8.40;99.90
37874;DHT22;23709;48.078;11.684;2023-04-19T07:30:13;8.40;99.90
37874;DHT22;23709;48.078;11.684;2023-04-19T07:32:46;8.40;99.90
37874;DHT22;23709;48.078;11.684;2023-04-19T07:35:19;8.50;99.90
37874;DHT22;23709;48.078;11.684;2023-04-19T07:37:51;8.50;99.90
37874;DHT22;23709;48.078;11.684;2023-04-19T07:40:24;8.50;99.90
37874;DHT22;23709;48.078;11.684;2023-04-19T07:42:57;8.40;99.90
37874;DHT22;23709;48.078;11.684;2023-04-19T07:45:29;8.40;99.90
37874;DHT22;23709;48.078;11.684;2023-04-19T07:48:02;8.40;99.90
37874;DHT22;23709;48.078;11.684;2023-04-19T07:50:35;8.50;99.90
37874;DHT22;23709;48.078;11.684;2023-04-19T07:53:08;8.50;99.90
37874;DHT22;23709;48.078;11.684;2023-04-19T07:55:40;8.50;99.90
37874;DHT22;23709;48.078;11.684;2023-04-19T07:58:12;8.60;99.90
37874;DHT22;23709;48.078;11.684;2023-04-19T08:00:45;8.50;99.90
37874;DHT22;23709;48.078;11.684;2023-04-19T08:03:17;8.40;99.90
37874;DHT22;23709;48.078;11.684;2023-04-19T08:05:50;8.50;99.90
37874;DHT22;23709;48.078;11.684;2023-04-19T08:08:22;8.60;99.90
37874;DHT22;23709;48.078;11.684;2023-04-19T08:10:56;8.70;99.90
37874;DHT22;23709;48.078;11.684;2023-04-19T08:13:29;8.80;99.90
37874;DHT22;23709;48.078;11.684;2023-04-19T08:16:02;8.80;99.90
37874;DHT22;23709;48.078;11.684;2023-04-19T08:18:54;8.90;99.90
37874;DHT22;23709;48.078;11.684;2023-04-19T08:21:26;9.00;99.90
37874;DHT22;23709;48.078;11.684;2023-04-19T08:24:11;9.10;99.90
37874;DHT22;23709;48.078;11.684;2023-04-19T08:26:43;9.20;99.90
37874;DHT22;23709;48.078;11.684;2023-04-19T08:29:15;9.20;99.90
37874;DHT22;23709;48.078;11.684;2023-04-19T08:31:48;9.30;99.90
37874;DHT22;23709;48.078;11.684;2023-04-19T08:34:23;9.50;99.90
37874;DHT22;23709;48.078;11.684;2023-04-19T08:36:56;9.50;99.90
37874;DHT22;23709;48.078;11.684;2023-04-19T08:39:35;9.60;99.90
37874;DHT22;23709;48.078;11.684;2023-04-19T08:42:08;9.70;99.90
37874;DHT22;23709;48.078;11.684;2023-04-19T08:45:01;9.80;99.90
37874;DHT22;23709;48.078;11.684;2023-04-19T08:47:40;9.80;99.90
37874;DHT22;23709;48.078;11.684;2023-04-19T08:50:16;9.60;99.90
37874;DHT22;23709;48.078;11.684;2023-04-19T08:53:05;9.70;99.90
37874;DHT22;23709;48.078;11.684;2023-04-19T08:55:56;9.80;99.90
37874;DHT22;23709;48.078;11.684;2023-04-19T08:58:45;9.80;99.90
37874;DHT22;23709;48.078;11.684;2023-04-19T09:01:21;9.90;99.90
37874;DHT22;23709;48.078;11.684;2023-04-19T09:04:06;9.90;99.90
37874;DHT22;23709;48.078;11.684;2023-04-19T09:06:59;9.90;99.90
37874;DHT22;23709;48.078;11.684;2023-04-19T09:09:31;10.10;99.90
37874;DHT22;23709;48.078;11.684;2023-04-19T09:12:17;10.10;99.90
37874;DHT22;23709;48.078;11.684;2023-04-19T09:14:49;10.00;99.90
37874;DHT22;23709;48.078;11.684;2023-04-19T09:17:36;10.00;99.90
37874;DHT22;23709;48.078;11.684;2023-04-19T09:20:10;10.00;99.90
37874;DHT22;23709;48.078;11.684;2023-04-19T09:22:42;10.10;99.90
37874;DHT22;23709;48.078;11.684;2023-04-19T09:25:23;10.20;99.90
37874;DHT22;23709;48.078;11.684;2023-04-19T09:28:16;10.20;99.90
37874;DHT22;23709;48.078;11.684;2023-04-19T09:30:49;10.30;99.90
37874;DHT22;23709;48.078;11.684;2023-04-19T09:33:35;10.40;99.90
37874;DHT22;23709;48.078;11.684;2023-04-19T09:36:10;10.40;99.90
37874;DHT22;23709;48.078;11.684;2023-04-19T09:38:47;10.10;99.90
37874;DHT22;23709;48.078;11.684;2023-04-19T09:41:19;10.10;99.90
37874;DHT22;23709;48.078;11.684;2023-04-19T09:43:53;10.30;99.90
37874;DHT22;23709;48.078;11.684;2023-04-19T09:46:35;10.40;99.90
37874;DHT22;23709;48.078;11.684;2023-04-19T09:52:13;10.50;99.90
37874;DHT22;23709;48.078;11.684;2023-04-19T09:54:46;10.80;99.90
37874;DHT22;23709;48.078;11.684;2023-04-19T09:57:19;11.10;99.90
37874;DHT22;23709;48.078;11.684;2023-04-19T09:59:52;11.30;99.90
37874;DHT22;23709;48.078;11.684;2023-04-19T10:02:25;11.50;99.90
37874;DHT22;23709;48.078;11.684;2023-04-19T10:05:02;11.50;99.90
37874;DHT22;23709;48.078;11.684;2023-04-19T10:07:52;11.70;99.90
37874;DHT22;23709;48.078;11.684;2023-04-19T10:10:31;11.80;99.90
37874;DHT22;23709;48.078;11.684;2023-04-19T10:13:17;11.80;99.90
37874;DHT22;23709;48.078;11.684;2023-04-19T10:15:59;11.80;99.90
37874;DHT22;23709;48.078;11.684;2023-04-19T10:18:48;11.80;99.90
37874;DHT22;23709;48.078;11.684;2023-04-19T10:21:21;11.80;99.90
37874;DHT22;23709;48.078;11.684;2023-04-19T10:23:55;11.80;99.90
37874;DHT22;23709;48.078;11.684;2023-04-19T10:26:28;11.90;99.90
37874;DHT22;23709;48.078;11.684;2023-04-19T10:29:00;11.70;99.90
37874;DHT22;23709;48.078;11.684;2023-04-19T10:31:33;11.50;99.90
37874;DHT22;23709;48.078;11.684;2023-04-19T10:34:05;11.50;99.90
37874;DHT22;23709;48.078;11.684;2023-04-19T10:36:37;11.50;99.90
37874;DHT22;23709;48.078;11.684;2023-04-19T10:39:39;11.40;99.90
37874;DHT22;23709;48.078;11.684;2023-04-19T10:42:12;11.50;99.90
37874;DHT22;23709;48.078;11.684;2023-04-19T10:47:55;11.40;99.90
37874;DHT22;23709;48.078;11.684;2023-04-19T10:50:27;11.30;99.90
37874;DHT22;23709;48.078;11.684;2023-04-19T10:56:10;11.20;99.90
37874;DHT22;23709;48.078;11.684;2023-04-19T11:04:12;11.00;99.90
37874;DHT22;23709;48.078;11.684;2023-04-19T11:11:58;10.90;99.90
37874;DHT22;23709;48.078;11.684;2023-04-19T11:14:40;10.90;99.90
37874;DHT22;23709;48.078;11.684;2023-04-19T11:17:21;10.80;99.90
37874;DHT22;23709;48.078;11.684;2023-04-19T11:20:06;10.80;99.90
37874;DHT22;23709;48.078;11.684;2023-04-19T11:22:41;10.70;99.90
37874;DHT22;23709;48.078;11.684;2023-04-19T11:27:48;10.50;99.90
37874;DHT22;23709;48.078;11.684;2023-04-19T11:30:27;10.50;99.90
37874;DHT22;23709;48.078;11.684;2023-04-19T11:32:59;10.40;99.90
37874;DHT22;23709;48.078;11.684;2023-04-19T11:35:32;10.30;99.90
37874;DHT22;23709;48.078;11.684;2023-04-19T11:38:05;10.30;99.90
37874;DHT22;23709;48.078;11.684;2023-04-19T11:40:37;10.30;99.90
37874;DHT22;23709;48.078;11.684;2023-04-19T11:43:10;10.30;99.90
37874;DHT22;23709;48.078;11.684;2023-04-19T11:45:42;10.30;99.90
37874;DHT22;23709;48.078;11.684;2023-04-19T11:48:14;10.20;99.90
37874;DHT22;23709;48.078;11.684;2023-04-19T11:50:47;10.20;99.90
37874;DHT22;23709;48.078;11.684;2023-04-19T11:53:23;10.20;99.90
37874;DHT22;23709;48.078;11.684;2023-04-19T11:56:06;10.10;99.90
37874;DHT22;23709;48.078;11.684;2023-04-19T11:58:45;9.90;99.90
37874;DHT22;23709;48.078;11.684;2023-04-19T12:01:22;9.80;99.90
37874;DHT22;23709;48.078;11.684;2023-04-19T12:03:56;9.80;99.90
37874;DHT22;23709;48.078;11.684;2023-04-19T12:06:29;9.80;99.90
37874;DHT22;23709;48.078;11.684;2023-04-19T12:09:06;9.70;99.90
37874;DHT22;23709;48.078;11.684;2023-04-19T12:11:46;9.70;99.90
37874;DHT22;23709;48.078;11.684;2023-04-19T12:14:22;9.70;99.90
37874;DHT22;23709;48.078;11.684;2023-04-19T12:17:12;9.70;99.90
37874;DHT22;23709;48.078;11.684;2023-04-19T12:19:47;9.60;99.90
37874;DHT22;23709;48.078;11.684;2023-04-19T12:22:19;9.60;99.90
37874;DHT22;23709;48.078;11.684;2023-04-19T12:24:52;9.50;99.90
37874;DHT22;23709;48.078;11.684;2023-04-19T12:27:25;9.50;99.90
37874;DHT22;23709;48.078;11.684;2023-04-19T12:29:57;9.50;99.90
37874;DHT22;23709;48.078;11.684;2023-04-19T12:32:29;9.50;99.90
37874;DHT22;23709;48.078;11.684;2023-04-19T12:35:02;9.50;99.90
37874;DHT22;23709;48.078;11.684;2023-04-19T12:37:34;9.50;99.90
37874;DHT22;23709;48.078;11.684;2023-04-19T12:40:08;9.50;99.90
37874;DHT22;23709;48.078;11.684;2023-04-19T12:42:40;9.50;99.90
37874;DHT22;23709;48.078;11.684;2023-04-19T12:45:13;9.40;99.90
37874;DHT22;23709;48.078;11.684;2023-04-19T12:47:46;9.30;99.90
37874;DHT22;23709;48.078;11.684;2023-04-19T12:50:19;9.20;99.90
37874;DHT22;23709;48.078;11.684;2023-04-19T12:52:51;9.00;99.90
37874;DHT22;23709;48.078;11.684;2023-04-19T12:55:25;9.00;99.90
37874;DHT22;23709;48.078;11.684;2023-04-19T12:57:57;9.00;99.90
37874;DHT22;23709;48.078;11.684;2023-04-19T13:00:29;8.90;99.90
37874;DHT22;23709;48.078;11.684;2023-04-19T13:03:02;9.00;99.90
37874;DHT22;23709;48.078;11.684;2023-04-19T13:05:35;9.00;99.90
37874;DHT22;23709;48.078;11.684;2023-04-19T13:08:07;9.00;99.90
37874;DHT22;23709;48.078;11.684;2023-04-19T13:10:39;9.00;99.90
37874;DHT22;23709;48.078;11.684;2023-04-19T13:13:12;9.00;99.90
37874;DHT22;23709;48.078;11.684;2023-04-19T13:15:44;9.00;99.90
37874;DHT22;23709;48.078;11.684;2023-04-19T13:18:18;9.00;99.90
37874;DHT22;23709;48.078;11.684;2023-04-19T13:20:50;9.00;99.90
37874;DHT22;23709;48.078;11.684;2023-04-19T13:23:24;9.00;99.90
37874;DHT22;23709;48.078;11.684;2023-04-19T13:25:57;9.00;99.90
37874;DHT22;23709;48.078;11.684;2023-04-19T13:28:29;9.00;99.90
37874;DHT22;23709;48.078;11.684;2023-04-19T13:31:03;9.10;99.90
37874;DHT22;23709;48.078;11.684;2023-04-19T13:33:36;9.20;99.90
37874;DHT22;23709;48.078;11.684;2023-04-19T13:36:08;9.20;99.90
37874;DHT22;23709;48.078;11.684;2023-04-19T13:38:40;9.20;99.90
37874;DHT22;23709;48.078;11.684;2023-04-19T13:41:12;9.20;99.90
37874;DHT22;23709;48.078;11.684;2023-04-19T13:43:45;9.30;99.90
37874;DHT22;23709;48.078;11.684;2023-04-19T13:46:17;9.30;99.90
37874;DHT22;23709;48.078;11.684;2023-04-19T13:48:50;9.30;99.90
37874;DHT22;23709;48.078;11.684;2023-04-19T13:51:22;9.30;99.90
37874;DHT22;23709;48.078;11.684;2023-04-19T13:53:55;9.30;99.90
37874;DHT22;23709;48.078;11.684;2023-04-19T13:56:27;9.20;99.90
37874;DHT22;23709;48.078;11.684;2023-04-19T13:59:01;9.20;99.90
37874;DHT22;23709;48.078;11.684;2023-04-19T14:01:33;9.20;99.90
37874;DHT22;23709;48.078;11.684;2023-04-19T14:04:06;9.20;99.90
37874;DHT22;23709;48.078;11.684;2023-04-19T14:06:39;9.10;99.90
37874;DHT22;23709;48.078;11.684;2023-04-19T14:09:12;9.10;99.90
37874;DHT22;23709;48.078;11.684;2023-04-19T14:11:44;9.00;99.90
37874;DHT22;23709;48.078;11.684;2023-04-19T14:14:16;9.00;99.90
37874;DHT22;23709;48.078;11.684;2023-04-19T14:16:52;8.90;99.90
37874;DHT22;23709;48.078;11.684;2023-04-19T14:19:24;8.80;99.90
37874;DHT22;23709;48.078;11.684;2023-04-19T14:21:57;8.70;99.90
37874;DHT22;23709;48.078;11.684;2023-04-19T14:24:29;8.60;99.90
37874;DHT22;23709;48.078;11.684;2023-04-19T14:27:01;8.50;99.90
37874;DHT22;23709;48.078;11.684;2023-04-19T14:29:42;8.30;99.90
37874;DHT22;23709;48.078;11.684;2023-04-19T14:32:14;8.30;99.90
37874;DHT22;23709;48.078;11.684;2023-04-19T14:34:58;8.20;99.90
37874;DHT22;23709;48.078;11.684;2023-04-19T14:37:31;8.10;99.90
37874;DHT22;23709;48.078;11.684;2023-04-19T14:40:04;8.10;99.90
37874;DHT22;23709;48.078;11.684;2023-04-19T14:42:37;8.00;99.90
37874;DHT22;23709;48.078;11.684;2023-04-19T14:45:09;7.90;99.90
37874;DHT22;23709;48.078;11.684;2023-04-19T14:47:42;7.90;99.90
37874;DHT22;23709;48.078;11.684;2023-04-19T14:50:14;7.80;99.90
37874;DHT22;23709;48.078;11.684;2023-04-19T14:52:46;7.80;99.90
37874;DHT22;23709;48.078;11.684;2023-04-19T14:55:18;7.80;99.90
37874;DHT22;23709;48.078;11.684;2023-04-19T14:57:51;7.90;99.90
37874;DHT22;23709;48.078;11.684;2023-04-19T15:00:23;7.80;99.90
37874;DHT22;23709;48.078;11.684;2023-04-19T15:02:56;7.80;99.90
37874;DHT22;23709;48.078;11.684;2023-04-19T15:05:28;7.60;99.90
37874;DHT22;23709;48.078;11.684;2023-04-19T15:08:01;7.50;99.90
37874;DHT22;23709;48.078;11.684;2023-04-19T15:10:33;7.50;99.90
37874;DHT22;23709;48.078;11.684;2023-04-19T15:13:09;7.40;99.90
37874;DHT22;23709;48.078;11.684;2023-04-19T15:15:41;7.30;99.90
37874;DHT22;23709;48.078;11.684;2023-04-19T15:18:13;7.20;99.90
37874;DHT22;23709;48.078;11.684;2023-04-19T15:20:46;7.10;99.90
37874;DHT22;23709;48.078;11.684;2023-04-19T15:23:22;7.20;99.90
37874;DHT22;23709;48.078;11.684;2023-04-19T15:25:55;7.00;99.90
37874;DHT22;23709;48.078;11.684;2023-04-19T15:28:27;7.00;99.90
37874;DHT22;23709;48.078;11.684;2023-04-19T15:31:01;7.00;99.90
37874;DHT22;23709;48.078;11.684;2023-04-19T15:33:35;7.00;99.90
37874;DHT22;23709;48.078;11.684;2023-04-19T15:36:08;7.00;99.90
37874;DHT22;23709;48.078;11.684;2023-04-19T15:38:41;7.00;99.90
37874;DHT22;23709;48.078;11.684;2023-04-19T15:41:15;6.90;99.90
37874;DHT22;23709;48.078;11.684;2023-04-19T15:43:48;6.90;99.90
37874;DHT22;23709;48.078;11.684;2023-04-19T15:46:20;6.80;99.90
37874;DHT22;23709;48.078;11.684;2023-04-19T15:48:52;6.80;99.90
37874;DHT22;23709;48.078;11.684;2023-04-19T15:51:24;6.80;99.90
37874;DHT22;23709;48.078;11.684;2023-04-19T15:53:58;6.80;99.90
37874;DHT22;23709;48.078;11.684;2023-04-19T15:56:30;6.80;99.90
37874;DHT22;23709;48.078;11.684;2023-04-19T15:59:03;6.70;99.90
37874;DHT22;23709;48.078;11.684;2023-04-19T16:01:35;6.70;99.90
37874;DHT22;23709;48.078;11.684;2023-04-19T16:04:07;6.70;99.90
37874;DHT22;23709;48.078;11.684;2023-04-19T16:06:40;6.70;99.90
37874;DHT22;23709;48.078;11.684;2023-04-19T16:09:13;6.80;99.90
37874;DHT22;23709;48.078;11.684;2023-04-19T16:11:45;6.80;99.90
37874;DHT22;23709;48.078;11.684;2023-04-19T16:14:18;6.80;99.90
37874;DHT22;23709;48.078;11.684;2023-04-19T16:16:51;6.80;99.90
37874;DHT22;23709;48.078;11.684;2023-04-19T16:19:24;6.70;99.90
37874;DHT22;23709;48.078;11.684;2023-04-19T16:21:57;6.70;99.90
37874;DHT22;23709;48.078;11.684;2023-04-19T16:24:33;6.70;99.90
37874;DHT22;23709;48.078;11.684;2023-04-19T16:27:05;6.70;99.90
37874;DHT22;23709;48.078;11.684;2023-04-19T16:29:38;6.60;99.90
37874;DHT22;23709;48.078;11.684;2023-04-19T16:32:10;6.60;99.90
37874;DHT22;23709;48.078;11.684;2023-04-19T16:34:57;6.60;99.90